createdAt,value
2022-08-10T00:01:52.266Z,20.31
2022-08-10T00:04:21.426Z,20.39
2022-08-10T00:06:48.902Z,20.34
2022-08-10T00:09:15.372Z,20.26
2022-08-10T00:11:41.888Z,20.35
2022-08-10T00:14:08.381Z,20.44
2022-08-10T00:16:34.914Z,20.46
2022-08-10T00:19:01.438Z,20.23
2022-08-10T00:21:27.921Z,20.36
2022-08-10T00:23:54.351Z,20.29
2022-08-10T00:26:20.842Z,20.07
2022-08-10T00:28:48.726Z,19.94
2022-08-10T00:31:15.310Z,19.83
2022-08-10T00:33:41.874Z,20.13
2022-08-10T00:36:08.675Z,19.84
2022-08-10T00:38:37.095Z,19.95
2022-08-10T00:41:04.160Z,20.02
2022-08-10T00:43:30.729Z,20.14
2022-08-10T00:45:59.274Z,20.12
2022-08-10T00:48:29.024Z,20.01
2022-08-10T00:50:56.006Z,19.81
2022-08-10T00:53:22.525Z,19.46
2022-08-10T00:57:12.463Z,19.39
2022-08-10T00:58:38.430Z,19.54
2022-08-10T01:01:06.241Z,19.75
2022-08-10T01:04:58.715Z,19.44
2022-08-10T01:06:35.210Z,19.17
2022-08-10T01:09:35.171Z,19.41
2022-08-10T01:12:40.981Z,19.55
2022-08-10T01:15:18.960Z,19.36
2022-08-10T01:18:10.621Z,19.54
2022-08-10T01:21:32.905Z,19.46
2022-08-10T01:24:14.406Z,19.63
2022-08-10T01:27:13.546Z,19.66
2022-08-10T01:29:58.297Z,19.73
2022-08-10T01:32:32.660Z,19.35
2022-08-10T01:35:08.917Z,19.49
2022-08-10T01:37:43.778Z,19.43
2022-08-10T01:40:25.055Z,19.09
2022-08-10T01:42:54.399Z,18.84
2022-08-10T01:45:24.393Z,19.02
2022-08-10T01:48:16.379Z,19.24
2022-08-10T01:50:59.600Z,19.33
2022-08-10T01:53:41.113Z,19.26
2022-08-10T01:56:10.254Z,19.32
2022-08-10T01:58:38.236Z,19.19
2022-08-10T02:01:07.808Z,19.15
2022-08-10T02:04:05.302Z,19.28
2022-08-10T02:06:26.701Z,19.21
2022-08-10T02:09:00.322Z,19.13
2022-08-10T02:12:05.982Z,19.15
2022-08-10T02:14:21.997Z,19.07
2022-08-10T02:16:51.365Z,19.01
2022-08-10T02:19:21.823Z,19.03
2022-08-10T02:22:09.502Z,19.05
2022-08-10T02:24:40.886Z,19.04
2022-08-10T02:27:08.389Z,18.79
2022-08-10T02:29:36.536Z,18.78
2022-08-10T02:32:05.185Z,18.83
2022-08-10T02:34:34.875Z,18.84
2022-08-10T02:37:10.678Z,18.76
2022-08-10T02:39:37.597Z,18.80
2022-08-10T02:45:12.825Z,18.73
2022-08-10T02:45:20.718Z,18.30
2022-08-10T02:48:00.205Z,18.47
2022-08-10T02:50:29.865Z,18.51
2022-08-10T02:53:08.215Z,18.43
2022-08-10T02:56:02.920Z,18.38
2022-08-10T02:58:37.966Z,18.47
2022-08-10T03:01:10.498Z,18.35
2022-08-10T03:04:07.567Z,18.43
2022-08-10T03:06:38.733Z,18.47
2022-08-10T03:09:08.785Z,18.34
2022-08-10T03:12:35.464Z,18.36
2022-08-10T03:14:25.583Z,18.26
2022-08-10T03:16:54.908Z,18.18
2022-08-10T03:20:35.902Z,18.09
2022-08-10T03:22:10.786Z,17.88
2022-08-10T03:24:38.760Z,17.94
2022-08-10T03:27:05.778Z,17.95
2022-08-10T03:30:23.216Z,17.93
2022-08-10T03:32:20.831Z,18.03
2022-08-10T03:34:48.127Z,18.08
2022-08-10T03:37:14.694Z,18.05
2022-08-10T03:39:41.247Z,18.04
2022-08-10T03:42:12.755Z,17.94
2022-08-10T03:44:41.953Z,17.96
2022-08-10T03:47:16.142Z,17.88
2022-08-10T03:49:44.782Z,17.86
2022-08-10T03:52:12.219Z,17.85
2022-08-10T03:54:39.483Z,17.69
2022-08-10T03:57:06.369Z,17.81
2022-08-10T03:59:33.197Z,17.81
2022-08-10T04:02:43.692Z,17.88
2022-08-10T04:04:48.001Z,17.72
2022-08-10T04:07:15.047Z,17.70
2022-08-10T04:09:53.220Z,17.59
2022-08-10T04:12:21.721Z,17.64
2022-08-10T04:14:50.125Z,17.63
2022-08-10T04:18:03.362Z,17.55
2022-08-10T04:20:07.967Z,17.53
2022-08-10T04:22:36.588Z,17.43
2022-08-10T04:25:05.166Z,17.42
2022-08-10T04:27:32.048Z,17.31
2022-08-10T04:29:58.607Z,17.39
2022-08-10T04:32:28.277Z,17.37
2022-08-10T04:34:57.584Z,17.28
2022-08-10T04:37:25.564Z,17.47
2022-08-10T04:39:52.266Z,17.50
2022-08-10T04:42:19.065Z,17.58
2022-08-10T04:44:45.603Z,17.59
2022-08-10T04:47:12.090Z,17.64
2022-08-10T04:49:55.049Z,17.51
2022-08-10T04:52:22.671Z,17.23
2022-08-10T04:54:51.924Z,17.37
2022-08-10T04:57:18.435Z,17.36
2022-08-10T04:59:44.919Z,17.57
2022-08-10T05:02:30.798Z,17.58
2022-08-10T05:04:58.197Z,17.61
2022-08-10T05:07:24.743Z,17.68
2022-08-10T05:10:04.694Z,17.70
2022-08-10T05:12:35.975Z,17.52
2022-08-10T05:15:08.255Z,17.69
2022-08-10T05:17:36.483Z,17.63
2022-08-10T05:20:08.259Z,17.79
2022-08-10T05:22:41.112Z,17.95
2022-08-10T05:25:13.400Z,18.12
2022-08-10T05:27:41.176Z,18.01
2022-08-10T05:30:10.010Z,18.03
2022-08-10T05:32:56.411Z,18.00
2022-08-10T05:35:24.608Z,18.20
2022-08-10T05:38:09.422Z,18.55
2022-08-10T05:40:40.964Z,18.77
2022-08-10T05:43:09.602Z,18.88
2022-08-10T05:46:19.567Z,18.89
2022-08-10T05:48:41.853Z,18.82
2022-08-10T05:51:10.951Z,19.14
2022-08-10T05:54:03.063Z,18.95
2022-08-10T05:56:26.043Z,19.17
2022-08-10T05:58:52.865Z,19.36
2022-08-10T06:01:25.047Z,19.27
2022-08-10T06:03:58.605Z,19.44
2022-08-10T06:06:29.941Z,19.50
2022-08-10T06:08:57.582Z,19.64
2022-08-10T06:12:26.713Z,19.89
2022-08-10T06:14:32.442Z,19.65
2022-08-10T06:17:01.139Z,20.15
2022-08-10T06:19:29.306Z,20.08
2022-08-10T06:22:01.269Z,20.02
2022-08-10T06:24:33.979Z,20.33
2022-08-10T06:27:00.469Z,20.66
2022-08-10T06:29:29.625Z,20.74
2022-08-10T06:31:59.243Z,20.83
2022-08-10T06:34:49.554Z,20.89
2022-08-10T06:37:20.545Z,21.05
2022-08-10T06:39:47.270Z,21.15
2022-08-10T06:42:18.540Z,21.42
2022-08-10T06:45:14.650Z,21.45
2022-08-10T06:47:59.591Z,21.41
2022-08-10T06:50:55.932Z,21.57
2022-08-10T06:53:53.683Z,21.64
2022-08-10T06:56:38.134Z,21.68
2022-08-10T06:59:14.574Z,21.60
2022-08-10T07:01:57.496Z,21.80
2022-08-10T07:04:34.263Z,21.86
2022-08-10T07:07:03.899Z,22.12
2022-08-10T07:09:33.346Z,22.29
2022-08-10T07:12:07.761Z,22.17
2022-08-10T07:14:44.925Z,22.60
2022-08-10T07:17:19.033Z,22.52
2022-08-10T07:19:50.444Z,22.71
2022-08-10T07:23:00.482Z,23.07
2022-08-10T07:25:08.149Z,23.28
2022-08-10T07:27:58.218Z,23.29
2022-08-10T07:30:22.281Z,23.37
2022-08-10T07:32:51.444Z,23.44
2022-08-10T07:35:21.322Z,23.58
2022-08-10T07:37:51.063Z,23.87
2022-08-10T07:40:20.171Z,23.82
2022-08-10T07:42:56.150Z,23.91
2022-08-10T07:45:22.779Z,24.21
2022-08-10T07:47:55.152Z,24.15
2022-08-10T07:50:24.823Z,24.45
2022-08-10T07:52:53.392Z,24.52
2022-08-10T07:56:01.729Z,24.56
2022-08-10T07:58:09.401Z,24.42
2022-08-10T08:00:37.195Z,24.79
2022-08-10T08:03:07.246Z,24.89
2022-08-10T08:05:58.125Z,24.98
2022-08-10T08:08:22.523Z,24.77
2022-08-10T08:10:50.444Z,24.81
2022-08-10T08:13:20.591Z,24.81
2022-08-10T08:16:17.255Z,24.79
2022-08-10T08:18:37.509Z,25.01
2022-08-10T08:24:02.540Z,25.26
2022-08-10T08:24:14.598Z,25.40
2022-08-10T08:26:41.065Z,25.42
2022-08-10T08:29:10.785Z,25.37
2022-08-10T08:31:57.039Z,25.48
2022-08-10T08:34:25.322Z,25.31
2022-08-10T08:36:59.224Z,25.40
2022-08-10T08:39:32.094Z,25.43
2022-08-10T08:42:26.613Z,25.31
2022-08-10T08:45:21.967Z,25.59
2022-08-10T08:48:43.135Z,25.56
2022-08-10T08:52:06.165Z,25.74
2022-08-10T08:54:41.054Z,25.68
2022-08-10T08:57:50.745Z,26.14
2022-08-10T09:01:23.108Z,25.91
2022-08-10T09:04:28.918Z,25.83
2022-08-10T09:08:00.769Z,25.80
2022-08-10T09:10:17.106Z,26.15
2022-08-10T09:12:51.521Z,25.98
2022-08-10T09:15:40.898Z,26.50
2022-08-10T09:18:20.752Z,26.44
2022-08-10T09:20:53.822Z,26.62
2022-08-10T09:25:54.672Z,26.85
2022-08-10T09:28:31.989Z,26.90
2022-08-10T09:36:24.756Z,26.51
2022-08-10T09:38:02.483Z,26.85
2022-08-10T09:41:09.193Z,26.77
2022-08-10T09:43:42.659Z,27.00
2022-08-10T09:46:34.371Z,26.97
2022-08-10T09:49:53.939Z,26.93
2022-08-10T09:52:32.190Z,26.93
2022-08-10T09:55:23.964Z,26.90
2022-08-10T09:58:35.145Z,27.56
2022-08-10T10:02:03.956Z,27.13
2022-08-10T10:04:54.253Z,27.66
2022-08-10T10:07:26.778Z,27.21
2022-08-10T10:10:14.647Z,27.14
2022-08-10T10:12:59.127Z,27.20
2022-08-10T10:15:48.276Z,27.58
2022-08-10T10:18:30.085Z,27.52
2022-08-10T10:21:55.452Z,27.55
2022-08-10T10:24:34.323Z,27.46
2022-08-10T10:27:16.633Z,28.11
2022-08-10T10:29:58.440Z,27.94
2022-08-10T10:32:34.821Z,27.72
2022-08-10T10:35:15.315Z,27.84
2022-08-10T10:38:01.861Z,28.06
2022-08-10T10:40:42.156Z,28.00
2022-08-10T10:43:14.562Z,27.61
2022-08-10T10:46:02.568Z,27.96
2022-08-10T10:48:39.894Z,28.01
2022-08-10T10:51:33.063Z,28.20
2022-08-10T10:54:36.865Z,28.34
2022-08-10T10:57:58.734Z,28.39
2022-08-10T11:00:18.195Z,28.22
2022-08-10T11:03:32.109Z,28.68
2022-08-10T11:06:50.886Z,28.61
2022-08-10T11:10:03.239Z,29.09
2022-08-10T11:12:50.953Z,28.84
2022-08-10T11:15:47.646Z,29.51
2022-08-10T11:18:35.488Z,29.69
2022-08-10T11:21:45.567Z,29.53
2022-08-10T11:24:48.017Z,29.64
2022-08-10T11:27:21.643Z,29.61
2022-08-10T11:30:00.614Z,30.01
2022-08-10T11:32:42.966Z,29.93
2022-08-10T11:35:27.902Z,29.96
2022-08-10T11:38:47.442Z,29.87
2022-08-10T11:42:07.823Z,29.99
2022-08-10T11:44:55.265Z,29.29
2022-08-10T11:47:46.388Z,29.54
2022-08-10T11:50:28.457Z,29.70
2022-08-10T11:53:23.051Z,29.90
2022-08-10T11:55:56.063Z,29.04
2022-08-10T11:58:45.353Z,29.40
2022-08-10T12:01:15.444Z,29.99
2022-08-10T12:03:44.516Z,30.60
2022-08-10T12:06:13.625Z,30.78
2022-08-10T12:10:05.134Z,29.76
2022-08-10T12:11:34.130Z,30.03
2022-08-10T12:14:22.834Z,30.55
2022-08-10T12:16:59.768Z,30.65
2022-08-10T12:20:02.635Z,30.68
2022-08-10T12:22:36.226Z,30.66
2022-08-10T12:25:09.248Z,29.99
2022-08-10T12:27:48.731Z,29.62
2022-08-10T12:30:16.756Z,30.18
2022-08-10T12:33:01.618Z,30.51
2022-08-10T12:36:14.787Z,30.48
2022-08-10T12:38:57.292Z,30.42
2022-08-10T12:41:43.765Z,30.09
2022-08-10T12:44:42.839Z,30.20
2022-08-10T12:47:30.870Z,29.65
2022-08-10T12:50:31.559Z,29.38
2022-08-10T12:53:32.733Z,29.63
2022-08-10T12:56:01.693Z,30.15
2022-08-10T12:58:58.965Z,29.73
2022-08-10T13:01:17.842Z,29.58
2022-08-10T13:04:23.348Z,29.08
2022-08-10T13:06:47.655Z,29.91
2022-08-10T13:09:15.939Z,29.95
2022-08-10T13:12:38.989Z,30.60
2022-08-10T13:14:53.208Z,30.90
2022-08-10T13:17:39.832Z,30.96
2022-08-10T13:20:17.217Z,30.47
2022-08-10T13:22:48.527Z,29.92
2022-08-10T13:25:22.491Z,30.38
2022-08-10T13:28:03.114Z,30.06
2022-08-10T13:30:40.940Z,30.20
2022-08-10T13:33:10.787Z,31.22
2022-08-10T13:35:38.244Z,30.71
2022-08-10T13:38:07.108Z,30.57
2022-08-10T13:40:34.765Z,30.21
2022-08-10T13:43:05.900Z,30.58
2022-08-10T13:45:33.782Z,30.38
2022-08-10T13:48:22.194Z,31.34
2022-08-10T13:50:51.815Z,31.72
2022-08-10T13:53:20.226Z,31.51
2022-08-10T13:55:55.248Z,30.79
2022-08-10T13:58:37.056Z,31.42
2022-08-10T14:01:12.607Z,30.65
2022-08-10T14:03:42.342Z,30.81
2022-08-10T14:06:29.615Z,30.89
2022-08-10T14:09:05.827Z,31.75
2022-08-10T14:11:33.969Z,31.65
2022-08-10T14:14:16.579Z,31.36
2022-08-10T14:16:44.777Z,31.50
2022-08-10T14:19:22.270Z,30.83
2022-08-10T14:21:49.108Z,30.97
2022-08-10T14:24:26.292Z,31.02
2022-08-10T14:27:04.920Z,31.36
2022-08-10T14:29:38.178Z,32.02
2022-08-10T14:32:08.722Z,31.88
2022-08-10T14:36:16.226Z,32.29
2022-08-10T14:37:42.638Z,31.30
2022-08-10T14:40:22.105Z,31.46
2022-08-10T14:42:51.526Z,31.05
2022-08-10T14:45:24.823Z,31.32
2022-08-10T14:48:00.833Z,31.25
2022-08-10T14:50:32.123Z,31.60
2022-08-10T14:53:05.645Z,31.57
2022-08-10T14:55:59.121Z,31.66
2022-08-10T14:58:38.617Z,31.75
2022-08-10T15:01:06.683Z,31.34
2022-08-10T15:04:02.337Z,31.18
2022-08-10T15:06:30.366Z,31.04
2022-08-10T15:09:12.676Z,31.39
2022-08-10T15:12:13.697Z,30.75
2022-08-10T15:14:43.469Z,31.07
2022-08-10T15:17:13.691Z,31.23
2022-08-10T15:20:02.957Z,31.45
2022-08-10T15:22:37.920Z,30.92
2022-08-10T15:25:19.195Z,30.61
2022-08-10T15:27:53.417Z,30.86
2022-08-10T15:30:27.034Z,31.10
2022-08-10T15:33:21.701Z,30.95
2022-08-10T15:36:24.978Z,31.16
2022-08-10T15:40:21.148Z,30.85
2022-08-10T15:42:19.494Z,30.47
2022-08-10T15:44:49.891Z,30.68
2022-08-10T15:48:00.534Z,30.46
2022-08-10T15:50:39.753Z,30.68
2022-08-10T15:53:16.202Z,30.64
2022-08-10T15:55:54.636Z,31.14
2022-08-10T15:58:30.170Z,30.68
2022-08-10T16:02:04.418Z,30.85
2022-08-10T16:04:31.660Z,30.84
2022-08-10T16:07:07.904Z,30.94
2022-08-10T16:10:24.211Z,30.60
2022-08-10T16:12:40.590Z,30.75
2022-08-10T16:15:12.596Z,30.15
2022-08-10T16:17:56.429Z,30.39
2022-08-10T16:20:28.290Z,30.36
2022-08-10T16:23:01.453Z,30.48
2022-08-10T16:25:51.273Z,30.81
2022-08-10T16:28:23.428Z,30.50
2022-08-10T16:30:54.040Z,30.66
2022-08-10T16:33:54.287Z,30.46
2022-08-10T16:36:17.508Z,30.34
2022-08-10T16:38:47.468Z,29.91
2022-08-10T16:42:04.250Z,30.13
2022-08-10T16:44:04.108Z,30.42
2022-08-10T16:46:31.979Z,30.01
2022-08-10T16:48:59.973Z,29.69
2022-08-10T16:51:27.203Z,29.73
2022-08-10T16:53:55.132Z,29.24
2022-08-10T16:56:49.360Z,29.52
2022-08-10T16:59:20.619Z,29.29
2022-08-10T17:01:51.323Z,29.53
2022-08-10T17:04:22.451Z,29.30
2022-08-10T17:06:57.096Z,29.38
2022-08-10T17:09:33.199Z,29.36
2022-08-10T17:12:10.730Z,29.22
2022-08-10T17:14:39.253Z,29.58
2022-08-10T17:17:11.555Z,29.34
2022-08-10T17:19:44.803Z,28.92
2022-08-10T17:22:16.345Z,29.01
2022-08-10T17:24:51.195Z,28.99
2022-08-10T17:28:05.004Z,29.06
2022-08-10T17:30:15.928Z,29.43
2022-08-10T17:33:12.332Z,29.03
2022-08-10T17:35:40.488Z,29.21
2022-08-10T17:38:24.842Z,28.74
2022-08-10T17:41:04.104Z,29.02
2022-08-10T17:43:58.304Z,28.89
2022-08-10T17:46:25.105Z,28.90
2022-08-10T17:48:53.447Z,29.19
2022-08-10T17:51:21.524Z,28.88
2022-08-10T17:53:51.216Z,28.78
2022-08-10T17:56:21.047Z,28.72
2022-08-10T17:59:04.582Z,28.49
2022-08-10T18:01:41.643Z,28.74
2022-08-10T18:04:22.334Z,28.84
2022-08-10T18:06:54.633Z,28.72
2022-08-10T18:09:51.923Z,28.35
2022-08-10T18:12:38.212Z,28.40
2022-08-10T18:15:13.227Z,28.31
2022-08-10T18:17:43.411Z,28.43
2022-08-10T18:20:11.628Z,28.23
2022-08-10T18:22:44.069Z,28.08
2022-08-10T18:25:18.136Z,27.78
2022-08-10T18:28:01.523Z,27.91
2022-08-10T18:30:36.394Z,27.89
2022-08-10T18:33:09.196Z,27.75
2022-08-10T18:35:37.117Z,27.80
2022-08-10T18:38:05.178Z,27.57
2022-08-10T18:40:36.095Z,27.77
2022-08-10T18:44:02.920Z,27.64
2022-08-10T18:45:56.894Z,27.47
2022-08-10T18:48:34.183Z,27.43
2022-08-10T18:51:06.063Z,27.67
2022-08-10T18:53:50.638Z,27.33
2022-08-10T18:56:40.507Z,27.42
2022-08-10T18:59:28.341Z,27.27
2022-08-10T19:02:19.338Z,27.10
2022-08-10T19:05:04.345Z,26.92
2022-08-10T19:07:48.869Z,27.00
2022-08-10T19:10:36.754Z,26.93
2022-08-10T19:13:29.517Z,26.88
2022-08-10T19:16:17.677Z,26.71
2022-08-10T19:19:22.940Z,26.70
2022-08-10T19:22:02.907Z,26.56
2022-08-10T19:24:44.728Z,26.47
2022-08-10T19:27:35.271Z,26.28
2022-08-10T19:30:13.302Z,26.44
2022-08-10T19:32:52.163Z,26.31
2022-08-10T19:36:03.021Z,26.29
2022-08-10T19:39:03.259Z,26.09
2022-08-10T19:41:44.994Z,25.92
2022-08-10T19:44:41.791Z,25.97
2022-08-10T19:47:32.165Z,25.87
2022-08-10T19:50:06.638Z,25.65
2022-08-10T19:52:43.173Z,25.81
2022-08-10T19:55:31.560Z,25.95
2022-08-10T19:58:22.313Z,25.84
2022-08-10T20:01:07.453Z,25.79
2022-08-10T20:03:41.628Z,25.67
2022-08-10T20:06:19.198Z,25.60
2022-08-10T20:09:02.853Z,25.60
2022-08-10T20:11:45.899Z,25.48
2022-08-10T20:14:21.441Z,25.32
2022-08-10T20:16:48.844Z,25.42
2022-08-10T20:19:53.154Z,25.51
2022-08-10T20:22:18.395Z,25.47
2022-08-10T20:25:02.844Z,25.45
2022-08-10T20:27:59.079Z,25.26
2022-08-10T20:30:23.627Z,25.34
2022-08-10T20:32:57.748Z,25.23
2022-08-10T20:36:03.082Z,25.09
2022-08-10T20:38:35.566Z,25.06
2022-08-10T20:41:46.936Z,25.03
2022-08-10T20:44:34.746Z,24.91
2022-08-10T20:47:20.077Z,24.94
2022-08-10T20:50:09.340Z,24.78
2022-08-10T20:52:36.668Z,24.71
2022-08-10T20:55:10.929Z,24.63
2022-08-10T20:58:22.519Z,24.35
2022-08-10T21:01:13.644Z,24.42
2022-08-10T21:04:11.282Z,24.49
2022-08-10T21:07:00.135Z,24.40
2022-08-10T21:09:39.483Z,24.28
2022-08-10T21:12:44.316Z,24.17
2022-08-10T21:15:32.623Z,24.15
2022-08-10T21:18:43.863Z,24.04
2022-08-10T21:21:56.947Z,24.05
2022-08-10T21:24:32.162Z,24.00
2022-08-10T21:27:08.438Z,23.86
2022-08-10T21:30:06.612Z,23.82
2022-08-10T21:32:48.181Z,23.74
2022-08-10T21:35:20.059Z,23.72
2022-08-10T21:38:19.503Z,23.61
2022-08-10T21:41:28.022Z,23.56
2022-08-10T21:44:49.433Z,23.38
2022-08-10T21:48:07.078Z,23.41
2022-08-10T21:50:52.922Z,23.28
2022-08-10T21:54:07.148Z,23.23
2022-08-10T21:57:02.784Z,23.18
2022-08-10T22:00:04.391Z,23.13
2022-08-10T22:02:52.183Z,23.08
2022-08-10T22:05:47.161Z,23.10
2022-08-10T22:08:44.492Z,23.09
2022-08-10T22:11:37.724Z,22.98
2022-08-10T22:14:25.596Z,22.95
2022-08-10T22:18:03.640Z,22.87
2022-08-10T22:20:29.463Z,22.89
2022-08-10T22:23:40.595Z,22.78
2022-08-10T22:26:37.438Z,22.64
2022-08-10T22:29:42.560Z,22.54
2022-08-10T22:32:56.279Z,22.63
2022-08-10T22:35:50.321Z,22.52
2022-08-10T22:39:13.997Z,22.51
2022-08-10T22:42:59.127Z,22.39
2022-08-10T22:45:42.847Z,22.19
2022-08-10T22:48:28.329Z,22.21
2022-08-10T22:51:04.838Z,22.26
2022-08-10T22:54:01.800Z,22.22
2022-08-10T22:56:47.151Z,22.10
2022-08-10T22:59:27.002Z,22.09
2022-08-10T23:02:09.418Z,22.03
2022-08-10T23:04:45.022Z,22.02
2022-08-10T23:07:17.869Z,22.06
2022-08-10T23:10:09.282Z,21.99
2022-08-10T23:13:23.501Z,21.91
2022-08-10T23:16:33.195Z,21.93
2022-08-10T23:19:10.874Z,21.81
2022-08-10T23:22:03.720Z,21.70
2022-08-10T23:24:42.947Z,21.66
2022-08-10T23:27:37.306Z,21.64
2022-08-10T23:30:09.455Z,21.61
2022-08-10T23:32:42.339Z,21.63
2022-08-10T23:36:31.841Z,21.64
2022-08-10T23:38:03.362Z,21.56
2022-08-10T23:40:30.743Z,21.62
2022-08-10T23:42:58.455Z,21.57
2022-08-10T23:45:27.768Z,21.52
2022-08-10T23:48:01.121Z,21.53
2022-08-10T23:50:29.458Z,21.41
2022-08-10T23:53:01.326Z,21.30
2022-08-10T23:55:49.121Z,21.25
2022-08-10T23:58:33.494Z,21.20
